createdAt,value
2018-03-24T00:00:25.944Z,-3.3
2018-03-24T00:01:15.401Z,-3.3
2018-03-24T00:02:06.150Z,-3.3
2018-03-24T00:02:56.390Z,-3.3
2018-03-24T00:03:46.195Z,-3.3
2018-03-24T00:04:36.214Z,-3.3
2018-03-24T00:05:26.256Z,-3.3
2018-03-24T00:06:16.597Z,-3.3
2018-03-24T00:07:06.358Z,-3.3
2018-03-24T00:07:56.722Z,-3.3
2018-03-24T00:08:46.502Z,-3.3
2018-03-24T00:09:36.254Z,-3.3
2018-03-24T00:10:26.596Z,-3.3
2018-03-24T00:11:16.666Z,-3.3
2018-03-24T00:12:06.711Z,-3.3
2018-03-24T00:12:56.769Z,-3.3
2018-03-24T00:13:47.116Z,-3.3
2018-03-24T00:14:37.158Z,-3.3
2018-03-24T00:15:27.213Z,-3.3
2018-03-24T00:16:17.291Z,-3.3
2018-03-24T00:17:07.358Z,-3.3
2018-03-24T00:17:56.924Z,-3.3
2018-03-24T00:18:47.153Z,-3.3
2018-03-24T00:19:37.236Z,-3.3
2018-03-24T00:20:26.703Z,-3.3
2018-03-24T00:21:16.853Z,-3.3
2018-03-24T00:22:07.285Z,-3.3
2018-03-24T00:22:57.153Z,-3.3
2018-03-24T00:23:47.315Z,-3.3
2018-03-24T00:24:37.843Z,-3.3
2018-03-24T00:25:27.616Z,-3.3
2018-03-24T00:26:17.569Z,-3.3
2018-03-24T00:27:07.754Z,-3.3
2018-03-24T00:27:57.302Z,-3.3
2018-03-24T00:28:47.855Z,-3.3
2018-03-24T00:29:37.992Z,-3.4
2018-03-24T00:30:28.244Z,-3.3
2018-03-24T00:31:17.447Z,-3.3
2018-03-24T00:32:08.393Z,-3.3
2018-03-24T00:32:57.648Z,-3.4
2018-03-24T00:33:47.998Z,-3.3
2018-03-24T00:34:38.237Z,-3.4
2018-03-24T00:35:28.569Z,-3.3
2018-03-24T00:36:18.372Z,-3.4
2018-03-24T00:37:08.135Z,-3.4
2018-03-24T00:37:58.280Z,-3.4
2018-03-24T00:38:48.265Z,-3.4
2018-03-24T00:39:38.295Z,-3.4
2018-03-24T00:40:28.662Z,-3.4
2018-03-24T00:41:18.127Z,-3.4
2018-03-24T00:42:08.762Z,-3.4
2018-03-24T00:42:59.155Z,-3.4
2018-03-24T00:43:49.143Z,-3.4
2018-03-24T00:44:38.537Z,-3.4
2018-03-24T00:45:28.790Z,-3.4
2018-03-24T00:46:19.069Z,-3.4
2018-03-24T00:47:09.395Z,-3.4
2018-03-24T00:47:58.879Z,-3.4
2018-03-24T00:48:48.924Z,-3.4
2018-03-24T00:49:38.692Z,-3.4
2018-03-24T00:50:29.627Z,-3.4
2018-03-24T00:51:19.381Z,-3.4
2018-03-24T00:52:08.672Z,-3.4
2018-03-24T00:52:59.514Z,-3.4
2018-03-24T00:53:49.826Z,-3.4
2018-03-24T00:54:39.604Z,-3.4
2018-03-24T00:55:29.285Z,-3.4
2018-03-24T00:56:19.538Z,-3.4
2018-03-24T00:57:10.086Z,-3.4
2018-03-24T00:57:59.830Z,-3.4
2018-03-24T00:58:49.712Z,-3.4
2018-03-24T00:59:39.677Z,-3.4
2018-03-24T01:00:30.017Z,-3.4
2018-03-24T01:01:19.783Z,-3.4
2018-03-24T01:02:09.609Z,-3.4
2018-03-24T01:03:00.471Z,-3.4
2018-03-24T01:03:50.217Z,-3.4
2018-03-24T01:04:40.091Z,-3.4
2018-03-24T01:05:29.657Z,-3.4
2018-03-24T01:06:20.411Z,-3.4
2018-03-24T01:07:10.180Z,-3.4
2018-03-24T01:08:00.121Z,-3.4
2018-03-24T01:08:50.570Z,-3.4
2018-03-24T01:09:40.647Z,-3.4
2018-03-24T01:10:30.445Z,-3.4
2018-03-24T01:11:20.473Z,-3.4
2018-03-24T01:12:10.405Z,-3.4
2018-03-24T01:13:00.683Z,-3.4
2018-03-24T01:13:50.637Z,-3.4
2018-03-24T01:14:40.505Z,-3.4
2018-03-24T01:15:31.338Z,-3.4
2018-03-24T01:16:21.100Z,-3.4
2018-03-24T01:17:10.750Z,-3.4
2018-03-24T01:18:00.934Z,-3.4
2018-03-24T01:18:50.972Z,-3.4
2018-03-24T01:19:41.117Z,-3.4
2018-03-24T01:20:31.660Z,-3.4
2018-03-24T01:21:21.700Z,-3.4
2018-03-24T01:22:11.779Z,-3.4
2018-03-24T01:23:01.822Z,-3.4
2018-03-24T01:23:51.900Z,-3.4
2018-03-24T01:24:41.956Z,-3.4
2018-03-24T01:25:32.000Z,-3.4
2018-03-24T01:26:21.787Z,-3.4
2018-03-24T01:27:11.837Z,-3.4
2018-03-24T01:28:02.172Z,-3.4
2018-03-24T01:28:52.234Z,-3.4
2018-03-24T01:29:42.002Z,-3.4
2018-03-24T01:30:32.336Z,-3.4
2018-03-24T01:31:22.405Z,-3.4
2018-03-24T01:32:12.507Z,-3.4
2018-03-24T01:33:02.252Z,-3.4
2018-03-24T01:33:52.276Z,-3.4
2018-03-24T01:34:42.649Z,-3.4
2018-03-24T01:35:32.674Z,-3.4
2018-03-24T01:36:22.469Z,-3.4
2018-03-24T01:37:12.529Z,-3.4
2018-03-24T01:38:02.560Z,-3.4
2018-03-24T01:38:52.339Z,-3.4
2018-03-24T01:39:42.689Z,-3.4
2018-03-24T01:40:32.559Z,-3.4
2018-03-24T01:41:22.884Z,-3.4
2018-03-24T01:42:13.176Z,-3.4
2018-03-24T01:43:03.208Z,-3.4
2018-03-24T01:43:53.264Z,-3.4
2018-03-24T01:44:43.038Z,-3.4
2018-03-24T01:45:33.092Z,-3.4
2018-03-24T01:46:23.161Z,-3.4
2018-03-24T01:47:13.204Z,-3.4
2018-03-24T01:48:03.286Z,-3.4
2018-03-24T01:48:53.596Z,-3.4
2018-03-24T01:49:43.180Z,-3.4
2018-03-24T01:50:32.866Z,-3.4
2018-03-24T01:51:23.488Z,-3.4
2018-03-24T01:52:13.057Z,-3.4
2018-03-24T01:53:03.350Z,-3.4
2018-03-24T01:53:53.675Z,-3.4
2018-03-24T01:54:43.446Z,-3.4
2018-03-24T01:55:33.776Z,-3.4
2018-03-24T01:56:23.920Z,-3.4
2018-03-24T01:57:13.895Z,-3.4
2018-03-24T01:58:03.660Z,-3.4
2018-03-24T01:58:53.800Z,-3.4
2018-03-24T01:59:43.778Z,-3.4
2018-03-24T02:00:33.844Z,-3.4
2018-03-24T02:01:24.285Z,-3.4
2018-03-24T02:02:14.505Z,-3.4
2018-03-24T02:03:04.285Z,-3.4
2018-03-24T02:03:54.190Z,-3.4
2018-03-24T02:04:44.298Z,-3.4
2018-03-24T02:05:34.549Z,-3.4
2018-03-24T02:06:24.330Z,-3.4
2018-03-24T02:07:14.289Z,-3.4
2018-03-24T02:08:04.415Z,-3.4
2018-03-24T02:08:54.978Z,-3.4
2018-03-24T02:09:44.773Z,-3.4
2018-03-24T02:10:34.808Z,-3.4
2018-03-24T02:11:24.284Z,-3.4
2018-03-24T02:12:14.702Z,-3.4
2018-03-24T02:13:04.694Z,-3.4
2018-03-24T02:13:54.832Z,-3.4
2018-03-24T02:14:44.301Z,-3.4
2018-03-24T02:15:35.143Z,-3.4
2018-03-24T02:16:25.202Z,-3.4
2018-03-24T02:17:14.969Z,-3.4
2018-03-24T02:18:05.017Z,-3.4
2018-03-24T02:18:55.357Z,-3.4
2018-03-24T02:19:45.519Z,-3.4
2018-03-24T02:20:35.490Z,-3.4
2018-03-24T02:21:25.256Z,-3.4
2018-03-24T02:22:15.022Z,-3.4
2018-03-24T02:23:05.644Z,-3.4
2018-03-24T02:23:55.704Z,-3.4
2018-03-24T02:24:45.462Z,-3.4
2018-03-24T02:25:35.531Z,-3.4
2018-03-24T02:26:26.174Z,-3.4
2018-03-24T02:27:16.202Z,-3.4
2018-03-24T02:28:05.986Z,-3.4
2018-03-24T02:28:56.326Z,-3.4
2018-03-24T02:29:45.806Z,-3.4
2018-03-24T02:30:35.888Z,-3.4
2018-03-24T02:31:26.234Z,-3.4
2018-03-24T02:32:15.987Z,-3.4
2018-03-24T02:33:06.065Z,-3.4
2018-03-24T02:33:56.103Z,-3.4
2018-03-24T02:34:46.436Z,-3.4
2018-03-24T02:35:36.601Z,-3.4
2018-03-24T02:36:26.679Z,-3.4
2018-03-24T02:37:16.924Z,-3.4
2018-03-24T02:38:06.388Z,-3.4
2018-03-24T02:38:56.887Z,-3.4
2018-03-24T02:39:46.215Z,-3.4
2018-03-24T02:40:36.641Z,-3.4
2018-03-24T02:41:26.713Z,-3.4
2018-03-24T02:42:16.962Z,-3.4
2018-03-24T02:43:07.034Z,-3.4
2018-03-24T02:43:57.088Z,-3.4
2018-03-24T02:44:46.556Z,-3.4
2018-03-24T02:45:36.906Z,-3.4
2018-03-24T02:46:26.662Z,-3.4
2018-03-24T02:47:17.026Z,-3.4
2018-03-24T02:48:06.889Z,-3.4
2018-03-24T02:48:57.432Z,-3.4
2018-03-24T02:49:47.485Z,-3.4
2018-03-24T02:50:37.522Z,-3.4
2018-03-24T02:51:27.596Z,-3.4
2018-03-24T02:52:17.945Z,-3.4
2018-03-24T02:53:08.017Z,-3.4
2018-03-24T02:53:57.550Z,-3.4
2018-03-24T02:54:47.810Z,-3.4
2018-03-24T02:55:37.308Z,-3.4
2018-03-24T02:56:28.239Z,-3.4
2018-03-24T02:57:17.505Z,-3.4
2018-03-24T02:58:08.056Z,-3.5
2018-03-24T02:58:57.691Z,-3.4
2018-03-24T02:59:47.982Z,-3.4
2018-03-24T03:00:38.525Z,-3.4
2018-03-24T03:01:27.591Z,-3.4
2018-03-24T03:02:18.123Z,-3.5
2018-03-24T03:03:07.899Z,-3.4
2018-03-24T03:03:58.228Z,-3.5
2018-03-24T03:04:48.289Z,-3.5
2018-03-24T03:05:38.345Z,-3.5
2018-03-24T03:06:28.399Z,-3.5
2018-03-24T03:07:18.461Z,-3.5
2018-03-24T03:08:08.531Z,-3.5
2018-03-24T03:08:58.626Z,-3.5
2018-03-24T03:09:48.624Z,-3.5
2018-03-24T03:10:38.678Z,-3.5
2018-03-24T03:11:28.760Z,-3.5
2018-03-24T03:12:18.812Z,-3.5
2018-03-24T03:13:08.309Z,-3.5
2018-03-24T03:13:58.912Z,-3.5
2018-03-24T03:14:49.007Z,-3.5
2018-03-24T03:15:38.762Z,-3.5
2018-03-24T03:16:29.080Z,-3.5
2018-03-24T03:17:19.165Z,-3.5
2018-03-24T03:18:09.193Z,-3.5
2018-03-24T03:18:58.959Z,-3.5
2018-03-24T03:19:49.041Z,-3.5
2018-03-24T03:20:38.598Z,-3.6
2018-03-24T03:21:29.145Z,-3.5
2018-03-24T03:22:18.920Z,-3.5
2018-03-24T03:23:09.257Z,-3.5
2018-03-24T03:23:59.820Z,-3.5
2018-03-24T03:24:49.662Z,-3.5
2018-03-24T03:25:40.244Z,-3.5
2018-03-24T03:26:29.731Z,-3.5
2018-03-24T03:27:20.053Z,-3.5
2018-03-24T03:28:09.620Z,-3.5
2018-03-24T03:28:59.868Z,-3.5
2018-03-24T03:29:50.225Z,-3.5
2018-03-24T03:30:40.083Z,-3.5
2018-03-24T03:31:30.350Z,-3.5
2018-03-24T03:32:20.085Z,-3.5
2018-03-24T03:33:10.153Z,-3.5
2018-03-24T03:34:00.094Z,-3.5
2018-03-24T03:34:50.265Z,-3.5
2018-03-24T03:35:40.199Z,-3.5
2018-03-24T03:36:30.177Z,-3.5
2018-03-24T03:37:20.457Z,-3.5
2018-03-24T03:38:11.079Z,-3.6
2018-03-24T03:39:00.646Z,-3.6
2018-03-24T03:39:51.187Z,-3.5
2018-03-24T03:40:40.947Z,-3.5
2018-03-24T03:41:31.284Z,-3.6
2018-03-24T03:42:20.879Z,-3.5
2018-03-24T03:43:10.639Z,-3.6
2018-03-24T03:44:00.491Z,-3.5
2018-03-24T03:44:51.534Z,-3.5
2018-03-24T03:45:41.281Z,-3.5
2018-03-24T03:46:31.157Z,-3.6
2018-03-24T03:47:21.426Z,-3.5
2018-03-24T03:48:11.234Z,-3.6
2018-03-24T03:49:01.249Z,-3.6
2018-03-24T03:49:51.184Z,-3.6
2018-03-24T03:50:41.908Z,-3.6
2018-03-24T03:51:31.714Z,-3.6
2018-03-24T03:52:21.257Z,-3.5
2018-03-24T03:53:11.699Z,-3.6
2018-03-24T03:54:01.654Z,-3.5
2018-03-24T03:54:51.709Z,-3.6
2018-03-24T03:55:41.687Z,-3.6
2018-03-24T03:56:31.755Z,-3.5
2018-03-24T03:57:22.093Z,-3.6
2018-03-24T03:58:11.961Z,-3.6
2018-03-24T03:59:02.192Z,-3.5
2018-03-24T03:59:52.078Z,-3.5
2018-03-24T04:00:42.313Z,-3.6
2018-03-24T04:01:32.375Z,-3.5
2018-03-24T04:02:21.850Z,-3.5
2018-03-24T04:03:12.585Z,-3.5
2018-03-24T04:04:02.539Z,-3.6
2018-03-24T04:04:52.324Z,-3.6
2018-03-24T04:05:42.067Z,-3.5
2018-03-24T04:06:32.310Z,-3.6
2018-03-24T04:07:22.280Z,-3.5
2018-03-24T04:08:12.833Z,-3.5
2018-03-24T04:09:03.185Z,-3.5
2018-03-24T04:09:52.938Z,-3.5
2018-03-24T04:10:43.115Z,-3.5
2018-03-24T04:11:33.065Z,-3.5
2018-03-24T04:12:22.538Z,-3.5
2018-03-24T04:13:13.176Z,-3.5
2018-03-24T04:14:03.024Z,-3.5
2018-03-24T04:14:52.999Z,-3.5
2018-03-24T04:15:43.342Z,-3.5
2018-03-24T04:16:33.118Z,-3.5
2018-03-24T04:17:23.460Z,-3.5
2018-03-24T04:18:13.239Z,-3.5
2018-03-24T04:19:03.880Z,-3.5
2018-03-24T04:19:53.340Z,-3.5
2018-03-24T04:20:43.493Z,-3.5
2018-03-24T04:21:33.549Z,-3.5
2018-03-24T04:22:23.513Z,-3.5
2018-03-24T04:23:13.850Z,-3.5
2018-03-24T04:24:03.907Z,-3.5
2018-03-24T04:24:54.087Z,-3.5
2018-03-24T04:25:44.352Z,-3.5
2018-03-24T04:26:34.465Z,-3.5
2018-03-24T04:27:23.854Z,-3.5
2018-03-24T04:28:13.994Z,-3.5
2018-03-24T04:29:04.260Z,-3.5
2018-03-24T04:29:54.322Z,-3.5
2018-03-24T04:30:44.165Z,-3.5
2018-03-24T04:31:34.442Z,-3.5
2018-03-24T04:32:24.776Z,-3.5
2018-03-24T04:33:14.642Z,-3.4
2018-03-24T04:34:04.409Z,-3.5
2018-03-24T04:34:54.360Z,-3.4
2018-03-24T04:35:44.413Z,-3.4
2018-03-24T04:36:34.364Z,-3.4
2018-03-24T04:37:24.814Z,-3.5
2018-03-24T04:38:15.174Z,-3.4
2018-03-24T04:39:04.658Z,-3.4
2018-03-24T04:39:55.273Z,-3.4
2018-03-24T04:40:45.320Z,-3.4
2018-03-24T04:41:35.401Z,-3.4
2018-03-24T04:42:25.153Z,-3.4
2018-03-24T04:43:15.513Z,-3.4
2018-03-24T04:44:05.560Z,-3.4
2018-03-24T04:44:55.615Z,-3.4
2018-03-24T04:45:45.392Z,-3.4
2018-03-24T04:46:35.722Z,-3.4
2018-03-24T04:47:25.783Z,-3.4
2018-03-24T04:48:15.853Z,-3.4
2018-03-24T04:49:05.881Z,-3.4
2018-03-24T04:49:55.940Z,-3.4
2018-03-24T04:50:46.020Z,-3.4
2018-03-24T04:51:36.118Z,-3.4
2018-03-24T04:52:25.840Z,-3.4
2018-03-24T04:53:16.180Z,-3.4
2018-03-24T04:54:06.233Z,-3.4
2018-03-24T04:54:56.278Z,-3.4
2018-03-24T04:55:46.335Z,-3.4
2018-03-24T04:56:35.829Z,-3.4
2018-03-24T04:57:26.450Z,-3.4
2018-03-24T04:58:16.258Z,-3.4
2018-03-24T04:59:06.300Z,-3.4
2018-03-24T04:59:56.647Z,-3.4
2018-03-24T05:00:46.473Z,-3.4
2018-03-24T05:01:36.172Z,-3.4
2018-03-24T05:02:26.537Z,-3.4
2018-03-24T05:03:16.862Z,-3.4
2018-03-24T05:04:06.375Z,-3.4
2018-03-24T05:04:56.679Z,-3.4
2018-03-24T05:05:46.774Z,-3.4
2018-03-24T05:06:36.604Z,-3.4
2018-03-24T05:07:27.188Z,-3.4
2018-03-24T05:08:16.927Z,-3.4
2018-03-24T05:09:07.257Z,-3.3
2018-03-24T05:09:57.062Z,-3.4
2018-03-24T05:10:47.096Z,-3.3
2018-03-24T05:11:37.424Z,-3.3
2018-03-24T05:12:26.704Z,-3.3
2018-03-24T05:13:17.062Z,-3.3
2018-03-24T05:14:07.323Z,-3.3
2018-03-24T05:14:57.169Z,-3.3
2018-03-24T05:15:46.662Z,-3.3
2018-03-24T05:16:37.239Z,-3.3
2018-03-24T05:17:27.355Z,-3.3
2018-03-24T05:18:17.105Z,-3.3
2018-03-24T05:19:07.464Z,-3.3
2018-03-24T05:19:57.221Z,-3.3
2018-03-24T05:20:47.572Z,-3.3
2018-03-24T05:21:37.629Z,-3.3
2018-03-24T05:22:27.684Z,-3.3
2018-03-24T05:23:17.458Z,-3.3
2018-03-24T05:24:07.809Z,-3.3
2018-03-24T05:24:57.853Z,-3.3
2018-03-24T05:25:48.396Z,-3.3
2018-03-24T05:26:38.193Z,-3.3
2018-03-24T05:27:28.039Z,-3.3
2018-03-24T05:28:18.083Z,-3.3
2018-03-24T05:29:07.906Z,-3.3
2018-03-24T05:29:57.897Z,-3.3
2018-03-24T05:30:48.755Z,-3.3
2018-03-24T05:31:38.224Z,-3.2
2018-03-24T05:32:28.853Z,-3.2
2018-03-24T05:33:18.902Z,-3.2
2018-03-24T05:34:08.964Z,-3.2
2018-03-24T05:34:58.755Z,-3.2
2018-03-24T05:35:49.096Z,-3.1
2018-03-24T05:36:38.868Z,-3.1
2018-03-24T05:37:29.218Z,-3.1
2018-03-24T05:38:18.983Z,-3.1
2018-03-24T05:39:09.149Z,-3.1
2018-03-24T05:39:59.371Z,-3.1
2018-03-24T05:40:49.471Z,-3.1
2018-03-24T05:41:39.473Z,-3.1
2018-03-24T05:42:29.265Z,-3.1
2018-03-24T05:43:19.026Z,-3.1
2018-03-24T05:44:09.382Z,-3.1
2018-03-24T05:44:59.421Z,-3
2018-03-24T05:45:49.198Z,-3
2018-03-24T05:46:39.829Z,-3
2018-03-24T05:47:29.879Z,-2.9
2018-03-24T05:48:19.660Z,-2.9
2018-03-24T05:49:09.982Z,-2.9
2018-03-24T05:49:59.784Z,-2.9
2018-03-24T05:50:49.815Z,-2.9
2018-03-24T05:51:39.890Z,-2.9
2018-03-24T05:52:29.942Z,-2.9
2018-03-24T05:53:19.983Z,-2.9
2018-03-24T05:54:10.336Z,-2.8
2018-03-24T05:55:00.099Z,-2.9
2018-03-24T05:55:50.264Z,-2.8
2018-03-24T05:56:39.741Z,-2.8
2018-03-24T05:57:30.581Z,-2.8
2018-03-24T05:58:20.329Z,-2.8
2018-03-24T05:59:10.655Z,-2.8
2018-03-24T06:00:00.466Z,-2.8
2018-03-24T06:00:50.777Z,-2.7
2018-03-24T06:01:40.832Z,-2.7
2018-03-24T06:02:30.914Z,-2.7
2018-03-24T06:03:21.010Z,-2.6
2018-03-24T06:04:11.026Z,-2.6
2018-03-24T06:05:00.804Z,-2.6
2018-03-24T06:05:50.859Z,-2.6
2018-03-24T06:06:41.181Z,-2.6
2018-03-24T06:07:30.954Z,-2.6
2018-03-24T06:08:21.013Z,-2.6
2018-03-24T06:09:11.356Z,-2.5
2018-03-24T06:10:01.442Z,-2.5
2018-03-24T06:10:51.178Z,-2.4
2018-03-24T06:11:41.239Z,-2.4
2018-03-24T06:12:31.605Z,-2.4
2018-03-24T06:13:21.368Z,-2.4
2018-03-24T06:14:11.400Z,-2.4
2018-03-24T06:15:01.751Z,-2.4
2018-03-24T06:15:51.580Z,-2.3
2018-03-24T06:16:41.563Z,-2.3
2018-03-24T06:17:31.930Z,-2.3
2018-03-24T06:18:21.990Z,-2.3
2018-03-24T06:19:12.054Z,-2.3
2018-03-24T06:20:01.533Z,-2.2
2018-03-24T06:20:52.134Z,-2.2
2018-03-24T06:21:41.647Z,-2.1
2018-03-24T06:22:32.258Z,-2.1
2018-03-24T06:23:22.326Z,-2.1
2018-03-24T06:24:12.104Z,-2.1
2018-03-24T06:25:02.423Z,-2.1
2018-03-24T06:25:52.216Z,-2
2018-03-24T06:26:42.268Z,-2
2018-03-24T06:27:32.624Z,-1.9
2018-03-24T06:28:22.643Z,-1.9
2018-03-24T06:29:12.698Z,-1.9
2018-03-24T06:30:02.495Z,-1.9
2018-03-24T06:30:52.828Z,-1.9
2018-03-24T06:31:42.882Z,-1.9
2018-03-24T06:32:32.659Z,-1.8
2018-03-24T06:33:23.031Z,-1.8
2018-03-24T06:34:12.808Z,-1.8
2018-03-24T06:35:02.601Z,-1.8
2018-03-24T06:35:52.886Z,-1.8
2018-03-24T06:36:43.223Z,-1.7
2018-03-24T06:37:33.271Z,-1.7
2018-03-24T06:38:23.433Z,-1.6
2018-03-24T06:39:12.827Z,-1.6
2018-03-24T06:40:03.178Z,-1.6
2018-03-24T06:40:53.709Z,-1.5
2018-03-24T06:41:43.570Z,-1.5
2018-03-24T06:42:33.665Z,-1.4
2018-03-24T06:43:23.411Z,-1.4
2018-03-24T06:44:13.467Z,-1.4
2018-03-24T06:45:03.795Z,-1.3
2018-03-24T06:45:53.862Z,-1.3
2018-03-24T06:46:43.633Z,-1.3
2018-03-24T06:47:34.000Z,-1.2
2018-03-24T06:48:24.030Z,-1.2
2018-03-24T06:49:14.092Z,-1.1
2018-03-24T06:50:04.138Z,-1.1
2018-03-24T06:50:54.237Z,-1.1
2018-03-24T06:51:43.678Z,-1.1
2018-03-24T06:52:34.021Z,-1
2018-03-24T06:53:24.367Z,-1
2018-03-24T06:55:04.205Z,-0.9
2018-03-24T06:55:54.287Z,-0.9
2018-03-24T06:56:44.289Z,-0.9
2018-03-24T06:57:34.364Z,-0.8
2018-03-24T06:58:24.702Z,-0.8
2018-03-24T06:59:14.480Z,-0.8
2018-03-24T07:00:04.824Z,-0.7
2018-03-24T07:00:54.882Z,-0.7
2018-03-24T07:01:44.924Z,-0.7
2018-03-24T07:02:34.700Z,-0.6
2018-03-24T07:03:25.036Z,-0.6
2018-03-24T07:04:15.094Z,-0.6
2018-03-24T07:05:04.866Z,-0.5
2018-03-24T07:05:55.199Z,-0.5
2018-03-24T07:06:45.263Z,-0.5
2018-03-24T07:07:35.336Z,-0.4
2018-03-24T07:08:25.374Z,-0.4
2018-03-24T07:09:15.152Z,-0.4
2018-03-24T07:10:05.479Z,-0.4
2018-03-24T07:10:55.538Z,-0.3
2018-03-24T07:11:45.327Z,-0.3
2018-03-24T07:12:35.381Z,-0.3
2018-03-24T07:13:25.769Z,-0.3
2018-03-24T07:14:15.488Z,-0.2
2018-03-24T07:15:05.596Z,-0.2
2018-03-24T07:15:55.609Z,-0.1
2018-03-24T07:16:45.950Z,-0.1
2018-03-24T07:17:35.995Z,-0.1
2018-03-24T07:18:26.046Z,-0.1
2018-03-24T07:19:15.849Z,-0.1
2018-03-24T07:20:06.193Z,-0.1
2018-03-24T07:20:56.225Z,0
2018-03-24T07:21:45.988Z,0
2018-03-24T07:22:36.079Z,0.1
2018-03-24T07:23:26.400Z,0.1
2018-03-24T07:24:16.442Z,0.1
2018-03-24T07:25:06.533Z,0.1
2018-03-24T07:25:56.620Z,0.1
2018-03-24T07:26:46.335Z,0.1
2018-03-24T07:27:36.765Z,0.1
2018-03-24T07:28:26.741Z,0.2
2018-03-24T07:29:16.542Z,0.2
2018-03-24T07:30:06.870Z,0.2
2018-03-24T07:30:56.614Z,0.3
2018-03-24T07:31:46.976Z,0.3
2018-03-24T07:32:37.062Z,0.3
2018-03-24T07:33:27.070Z,0.3
2018-03-24T07:34:16.853Z,0.3
2018-03-24T07:35:06.655Z,0.3
2018-03-24T07:35:57.252Z,0.3
2018-03-24T07:36:46.825Z,0.3
2018-03-24T07:37:36.604Z,0.3
2018-03-24T07:38:26.923Z,0.3
2018-03-24T07:39:17.497Z,0.3
2018-03-24T07:40:07.522Z,0.4
2018-03-24T07:40:57.307Z,0.4
2018-03-24T07:41:47.362Z,0.4
2018-03-24T07:42:37.689Z,0.4
2018-03-24T07:43:27.767Z,0.4
2018-03-24T07:44:17.538Z,0.5
2018-03-24T07:45:07.878Z,0.5
2018-03-24T07:45:57.940Z,0.5
2018-03-24T07:46:47.987Z,0.6
2018-03-24T07:47:38.328Z,0.6
2018-03-24T07:48:28.093Z,0.6
2018-03-24T07:49:17.966Z,0.6
2018-03-24T07:50:07.936Z,0.6
2018-03-24T07:50:58.279Z,0.6
2018-03-24T07:51:48.311Z,0.6
2018-03-24T07:52:38.126Z,0.7
2018-03-24T07:53:28.425Z,0.7
2018-03-24T07:54:18.198Z,0.8
2018-03-24T07:55:08.279Z,0.8
2018-03-24T07:55:58.329Z,0.8
2018-03-24T07:56:48.665Z,0.8
2018-03-24T07:57:38.451Z,0.9
2018-03-24T07:58:28.198Z,0.9
2018-03-24T07:59:18.826Z,0.9
2018-03-24T08:00:08.906Z,1
2018-03-24T08:00:58.943Z,1.1
2018-03-24T08:01:49.013Z,1.1
2018-03-24T08:02:39.047Z,1.1
2018-03-24T08:03:29.114Z,1.2
2018-03-24T08:04:19.337Z,1.3
2018-03-24T08:05:09.266Z,1.3
2018-03-24T08:05:59.268Z,1.4
2018-03-24T08:06:49.092Z,1.4
2018-03-24T08:07:39.468Z,1.5
2018-03-24T08:08:29.444Z,1.6
2018-03-24T08:09:19.510Z,1.6
2018-03-24T08:10:09.313Z,1.7
2018-03-24T08:10:59.686Z,1.8
2018-03-24T08:11:49.403Z,1.9
2018-03-24T08:12:39.444Z,1.9
2018-03-24T08:13:29.520Z,2
2018-03-24T08:14:19.559Z,2.1
2018-03-24T08:15:09.895Z,2.3
2018-03-24T08:15:59.667Z,2.4
2018-03-24T08:16:49.166Z,2.5
2018-03-24T08:17:39.306Z,2.7
2018-03-24T08:18:29.755Z,2.8
2018-03-24T08:19:19.613Z,3
2018-03-24T08:20:09.968Z,3.1
2018-03-24T08:20:59.741Z,3.3
2018-03-24T08:21:49.773Z,3.5
2018-03-24T08:22:39.558Z,3.6
2018-03-24T08:23:29.700Z,3.8
2018-03-24T08:24:20.140Z,4
2018-03-24T08:25:10.310Z,4.2
2018-03-24T08:25:59.883Z,4.3
2018-03-24T08:26:50.420Z,4.5
2018-03-24T08:27:40.570Z,4.7
2018-03-24T08:28:30.832Z,4.9
2018-03-24T08:29:20.095Z,5
2018-03-24T08:30:10.444Z,5.3
2018-03-24T08:31:00.695Z,5.4
2018-03-24T08:31:50.764Z,5.6
2018-03-24T08:32:40.525Z,5.8
2018-03-24T08:33:30.765Z,5.9
2018-03-24T08:34:21.027Z,6.1
2018-03-24T08:35:11.267Z,6.4
2018-03-24T08:36:00.750Z,6.6
2018-03-24T08:36:50.889Z,6.8
2018-03-24T08:37:41.171Z,7.1
2018-03-24T08:38:30.916Z,7.3
2018-03-24T08:39:21.345Z,7.6
2018-03-24T08:40:11.319Z,7.8
2018-03-24T08:41:01.083Z,8
2018-03-24T08:41:51.449Z,8.3
2018-03-24T08:42:41.498Z,8.5
2018-03-24T08:43:31.844Z,8.8
2018-03-24T08:44:21.883Z,9
2018-03-24T08:45:11.707Z,9.2
2018-03-24T08:46:02.016Z,9.5
2018-03-24T08:46:51.191Z,9.8
2018-03-24T08:47:41.847Z,10
2018-03-24T08:48:31.601Z,10.3
2018-03-24T08:49:22.231Z,10.5
2018-03-24T08:50:11.716Z,10.8
2018-03-24T08:51:01.477Z,11
2018-03-24T08:51:52.405Z,11.3
2018-03-24T08:52:42.171Z,11.6
2018-03-24T08:53:32.218Z,11.9
2018-03-24T08:54:21.875Z,12.1
2018-03-24T08:55:12.335Z,12.4
2018-03-24T08:56:02.084Z,12.8
2018-03-24T08:56:52.193Z,13.1
2018-03-24T08:57:42.223Z,13.4
2018-03-24T08:58:32.566Z,13.7
2018-03-24T08:59:22.333Z,14.1
2018-03-24T09:00:12.173Z,14.4
2018-03-24T09:01:02.733Z,14.8
2018-03-24T09:01:52.782Z,15.1
2018-03-24T09:02:43.116Z,15.4
2018-03-24T09:03:32.417Z,15.7
2018-03-24T09:04:22.483Z,16.1
2018-03-24T09:05:12.715Z,16.4
2018-03-24T09:06:03.157Z,16.8
2018-03-24T09:06:53.198Z,17.2
2018-03-24T09:07:42.900Z,17.6
2018-03-24T09:08:33.225Z,17.9
2018-03-24T09:09:23.318Z,18.3
2018-03-24T09:11:03.700Z,19.1
2018-03-24T09:11:53.465Z,19.4
2018-03-24T09:12:43.235Z,19.8
2018-03-24T09:13:33.277Z,20.1
2018-03-24T09:14:23.615Z,20.5
2018-03-24T09:15:13.394Z,20.8
2018-03-24T09:16:03.739Z,21.3
2018-03-24T09:16:53.885Z,21.6
2018-03-24T09:17:43.861Z,21.9
2018-03-24T09:18:34.199Z,22.3
2018-03-24T09:19:23.970Z,22.6
2018-03-24T09:20:14.319Z,23
2018-03-24T09:21:03.901Z,23.4
2018-03-24T09:21:54.145Z,23.8
2018-03-24T09:22:44.288Z,24.1
2018-03-24T09:23:33.964Z,24.6
2018-03-24T09:24:24.054Z,24.9
2018-03-24T09:25:13.960Z,25.3
2018-03-24T09:26:04.409Z,25.7
2018-03-24T09:26:54.469Z,26.1
2018-03-24T09:27:44.549Z,26.6
2018-03-24T09:28:34.292Z,27.1
2018-03-24T09:29:24.931Z,27.6
2018-03-24T09:30:14.693Z,27.9
2018-03-24T09:31:04.760Z,28.3
2018-03-24T09:31:54.613Z,28.6
2018-03-24T09:32:45.135Z,29.1
2018-03-24T09:33:34.437Z,29.6
2018-03-24T09:34:25.049Z,30.1
2018-03-24T09:35:14.739Z,30.8
2018-03-24T09:36:05.396Z,31.3
2018-03-24T09:36:55.169Z,31.9
2018-03-24T09:37:44.636Z,32.5
2018-03-24T09:38:34.972Z,33.2
2018-03-24T09:39:25.124Z,34
2018-03-24T09:40:15.379Z,34.9
2018-03-24T09:41:05.301Z,35.8
2018-03-24T09:41:55.501Z,36.6
2018-03-24T09:42:45.261Z,37.3
2018-03-24T09:43:35.606Z,38.1
2018-03-24T09:44:25.185Z,38.7
2018-03-24T09:45:15.433Z,39.3
2018-03-24T09:46:05.194Z,39.9
2018-03-24T09:46:55.633Z,40.4
2018-03-24T09:47:45.886Z,40.8
2018-03-24T09:48:35.553Z,41.2
2018-03-24T09:49:25.808Z,41.5
2018-03-24T17:51:47.913Z,1.1
2018-03-24T17:52:37.973Z,1.1
2018-03-24T17:53:27.734Z,1.1
2018-03-24T17:54:18.197Z,1.1
2018-03-24T17:55:08.420Z,1
2018-03-24T17:55:57.808Z,1
2018-03-24T17:56:48.563Z,1
2018-03-24T17:57:38.077Z,1
2018-03-24T17:58:28.085Z,1
2018-03-24T17:59:17.943Z,0.9
2018-03-24T18:00:07.995Z,0.9
2018-03-24T18:00:57.960Z,0.9
2018-03-24T18:01:48.017Z,0.9
2018-03-24T18:02:38.365Z,0.9
2018-03-24T18:03:28.497Z,0.9
2018-03-24T18:04:18.769Z,0.9
2018-03-24T18:05:08.325Z,0.9
2018-03-24T18:05:58.889Z,0.9
2018-03-24T18:06:48.739Z,0.9
2018-03-24T18:07:39.158Z,0.9
2018-03-24T18:08:28.752Z,0.9
2018-03-24T18:09:19.105Z,0.8
2018-03-24T18:10:09.281Z,0.8
2018-03-24T18:10:58.939Z,0.8
2018-03-24T18:11:49.268Z,0.8
2018-03-24T18:12:39.594Z,0.8
2018-03-24T18:13:28.608Z,0.8
2018-03-24T18:14:18.957Z,0.8
2018-03-24T18:15:09.306Z,0.8
2018-03-24T18:15:59.326Z,0.8
2018-03-24T18:16:49.390Z,0.8
2018-03-24T18:17:39.446Z,0.8
2018-03-24T18:18:29.528Z,0.7
2018-03-24T18:19:19.565Z,0.7
2018-03-24T18:20:09.623Z,0.7
2018-03-24T18:20:59.671Z,0.7
2018-03-24T18:21:49.446Z,0.7
2018-03-24T18:22:39.784Z,0.7
2018-03-24T18:23:29.841Z,0.6
2018-03-24T18:24:19.922Z,0.6
2018-03-24T18:25:09.687Z,0.6
2018-03-24T18:25:59.758Z,0.6
2018-03-24T18:26:50.563Z,0.6
2018-03-24T18:27:40.138Z,0.6
2018-03-24T18:28:29.893Z,0.6
2018-03-24T18:29:19.968Z,0.6
2018-03-24T18:30:10.015Z,0.6
2018-03-24T18:31:00.078Z,0.6
2018-03-24T18:31:50.430Z,0.6
2018-03-24T18:32:40.460Z,0.6
2018-03-24T18:33:30.517Z,0.6
2018-03-24T18:34:20.601Z,0.6
2018-03-24T18:35:11.124Z,0.6
2018-03-24T18:36:00.420Z,0.6
2018-03-24T18:36:49.988Z,0.6
2018-03-24T18:37:40.417Z,0.5
2018-03-24T18:38:31.066Z,0.5
2018-03-24T18:39:21.134Z,0.5
2018-03-24T18:40:10.400Z,0.5
2018-03-24T18:41:00.757Z,0.5
2018-03-24T18:41:50.823Z,0.5
2018-03-24T18:42:40.966Z,0.5
2018-03-24T18:43:31.127Z,0.5
2018-03-24T18:44:21.269Z,0.4
2018-03-24T18:45:11.800Z,0.4
2018-03-24T18:46:01.292Z,0.5
2018-03-24T18:46:51.565Z,0.5
2018-03-24T18:47:42.036Z,0.5
2018-03-24T18:48:31.533Z,0.4
2018-03-24T18:49:22.095Z,0.4
2018-03-24T18:50:12.137Z,0.4
2018-03-24T18:51:02.190Z,0.4
2018-03-24T18:51:52.255Z,0.4
2018-03-24T18:52:42.299Z,0.4
2018-03-24T18:53:32.364Z,0.4
2018-03-24T18:54:21.946Z,0.4
2018-03-24T18:55:12.480Z,0.4
2018-03-24T18:56:02.527Z,0.4
2018-03-24T18:56:52.584Z,0.4
2018-03-24T18:57:42.648Z,0.4
2018-03-24T18:58:32.708Z,0.4
2018-03-24T18:59:22.744Z,0.4
2018-03-24T19:00:12.819Z,0.4
2018-03-24T19:01:02.888Z,0.4
2018-03-24T19:01:52.925Z,0.4
2018-03-24T19:02:42.691Z,0.4
2018-03-24T19:03:32.461Z,0.4
2018-03-24T19:04:23.098Z,0.4
2018-03-24T19:05:13.392Z,0.4
2018-03-24T19:06:03.203Z,0.4
2018-03-24T19:06:53.257Z,0.3
2018-03-24T19:07:43.316Z,0.3
2018-03-24T19:08:33.092Z,0.3
2018-03-24T19:09:23.419Z,0.3
2018-03-24T19:10:13.200Z,0.3
2018-03-24T19:11:03.551Z,0.3
2018-03-24T19:11:53.608Z,0.3
2018-03-24T19:12:43.656Z,0.3
2018-03-24T19:13:33.198Z,0.3
2018-03-24T19:14:23.792Z,0.3
2018-03-24T19:15:13.828Z,0.3
2018-03-24T19:16:03.907Z,0.3
2018-03-24T19:16:53.663Z,0.3